createdAt,value
2018-10-07T00:15:16.809Z,1003.10
2018-10-07T00:16:16.720Z,1003.14
2018-10-07T00:17:16.646Z,1003.13
2018-10-07T00:18:16.559Z,1003.14
2018-10-07T00:19:16.486Z,1003.09
2018-10-07T00:20:16.397Z,1003.14
2018-10-07T00:21:16.323Z,1003.16
2018-10-07T00:22:16.235Z,1003.14
2018-10-07T00:23:16.159Z,1003.10
2018-10-07T00:24:16.084Z,1003.15
2018-10-07T00:25:15.997Z,1003.12
2018-10-07T00:26:15.910Z,1003.10
2018-10-07T00:27:15.835Z,1003.11
2018-10-07T00:28:15.762Z,1003.09
2018-10-07T00:29:15.672Z,1003.08
2018-10-07T00:30:15.587Z,1003.08
2018-10-07T00:31:15.511Z,1003.11
2018-10-07T00:32:15.422Z,1003.08
2018-10-07T00:33:15.348Z,1003.09
2018-10-07T00:34:15.267Z,1003.06
2018-10-07T00:35:15.187Z,1003.06
2018-10-07T00:36:15.098Z,1003.06
2018-10-07T00:37:15.024Z,1003.06
2018-10-07T00:38:14.937Z,1003.04
2018-10-07T00:39:14.862Z,1003.05
2018-10-07T00:40:14.776Z,1003.04
2018-10-07T00:41:14.701Z,1002.98
2018-10-07T00:42:14.612Z,1003.01
2018-10-07T00:43:14.538Z,1003.02
2018-10-07T00:44:14.454Z,1003.03
2018-10-07T00:45:14.414Z,1003.03
2018-10-07T00:46:14.288Z,1003.05
2018-10-07T00:47:14.214Z,1003.03
2018-10-07T00:48:14.125Z,1003.01
2018-10-07T00:49:14.050Z,1003.02
2018-10-07T00:50:13.964Z,1003.06
2018-10-07T00:51:13.889Z,1003.04
2018-10-07T00:52:13.801Z,1003.02
2018-10-07T00:53:13.729Z,1003.06
2018-10-07T00:54:13.639Z,1003.03
2018-10-07T00:55:13.566Z,1003.06
2018-10-07T00:56:13.478Z,1003.07
2018-10-07T00:57:13.402Z,1003.05
2018-10-07T00:58:13.316Z,1003.03
2018-10-07T00:59:13.241Z,1003.07
2018-10-07T01:00:13.159Z,1003.07
2018-10-07T01:01:13.078Z,1003.07
2018-10-07T01:02:12.991Z,1003.08
2018-10-07T01:03:12.916Z,1003.05
2018-10-07T01:04:12.828Z,1003.05
2018-10-07T01:05:12.752Z,1003.05
2018-10-07T01:06:12.675Z,1003.03
2018-10-07T01:07:12.592Z,1003.03
2018-10-07T01:08:12.503Z,1003.03
2018-10-07T01:09:12.441Z,1003.01
2018-10-07T01:10:12.346Z,1003.02
2018-10-07T01:11:12.268Z,1003.00
2018-10-07T01:12:12.178Z,1002.99
2018-10-07T01:13:12.104Z,1002.97
2018-10-07T01:14:12.017Z,1002.99
2018-10-07T01:15:11.944Z,1002.97
2018-10-07T01:16:11.853Z,1002.93
2018-10-07T01:17:11.779Z,1002.98
2018-10-07T01:18:11.694Z,1002.93
2018-10-07T01:19:11.617Z,1002.94
2018-10-07T01:20:11.529Z,1002.94
2018-10-07T01:21:11.443Z,1002.91
2018-10-07T01:22:11.368Z,1002.94
2018-10-07T01:23:11.283Z,1002.93
2018-10-07T01:24:11.207Z,1002.91
2018-10-07T01:25:11.129Z,1002.87
2018-10-07T01:26:11.045Z,1002.89
2018-10-07T01:27:10.955Z,1002.91
2018-10-07T01:28:10.879Z,1002.89
2018-10-07T01:29:10.792Z,1002.92
2018-10-07T01:30:10.718Z,1002.90
2018-10-07T01:31:10.630Z,1002.93
2018-10-07T01:32:10.572Z,1002.90
2018-10-07T01:33:10.469Z,1002.89
2018-10-07T01:34:10.394Z,1002.89
2018-10-07T01:35:10.319Z,1002.89
2018-10-07T01:36:10.231Z,1002.89
2018-10-07T01:37:10.149Z,1002.88
2018-10-07T01:38:10.069Z,1002.86
2018-10-07T01:39:09.981Z,1002.88
2018-10-07T01:40:09.907Z,1002.86
2018-10-07T01:41:09.819Z,1002.85
2018-10-07T01:42:09.746Z,1002.86
2018-10-07T01:43:09.660Z,1002.88
2018-10-07T01:44:09.582Z,1002.87
2018-10-07T01:45:09.496Z,1002.83
2018-10-07T01:46:09.420Z,1002.87
2018-10-07T01:47:09.332Z,1002.86
2018-10-07T01:48:09.257Z,1002.90
2018-10-07T01:49:09.170Z,1002.90
2018-10-07T01:50:09.096Z,1002.93
2018-10-07T01:51:09.007Z,1002.89
2018-10-07T01:52:08.935Z,1002.92
2018-10-07T01:53:08.846Z,1002.91
2018-10-07T01:54:08.773Z,1002.95
2018-10-07T01:55:08.683Z,1002.92
2018-10-07T01:56:08.608Z,1002.95
2018-10-07T01:57:08.523Z,1002.96
2018-10-07T01:58:08.448Z,1002.96
2018-10-07T01:59:08.359Z,1002.97
2018-10-07T02:00:08.283Z,1003.02
2018-10-07T02:01:08.198Z,1002.98
2018-10-07T02:02:08.122Z,1002.97
2018-10-07T02:03:08.038Z,1002.95
2018-10-07T02:04:07.959Z,1003.00
2018-10-07T02:05:07.915Z,1002.96
2018-10-07T02:06:07.797Z,1002.98
2018-10-07T02:07:07.709Z,1003.01
2018-10-07T02:08:07.624Z,1003.00
2018-10-07T02:09:07.549Z,1003.00
2018-10-07T02:10:07.461Z,1003.03
2018-10-07T02:11:07.399Z,1003.03
2018-10-07T02:12:07.298Z,1003.05
2018-10-07T02:13:07.229Z,1003.04
2018-10-07T02:14:07.136Z,1003.05
2018-10-07T02:15:07.060Z,1003.05
2018-10-07T02:16:06.975Z,1003.12
2018-10-07T02:17:06.953Z,1003.14
2018-10-07T02:18:06.810Z,1003.13
2018-10-07T02:19:06.736Z,1003.14
2018-10-07T02:20:06.651Z,1003.15
2018-10-07T02:21:06.575Z,1003.13
2018-10-07T02:22:06.487Z,1003.15
2018-10-07T02:23:06.410Z,1003.20
2018-10-07T02:24:06.326Z,1003.20
2018-10-07T02:25:06.250Z,1003.22
2018-10-07T02:26:06.161Z,1003.24
2018-10-07T02:27:06.087Z,1003.22
2018-10-07T02:28:06.000Z,1003.24
2018-10-07T02:29:05.925Z,1003.24
2018-10-07T02:30:05.837Z,1003.26
2018-10-07T02:31:05.763Z,1003.27
2018-10-07T02:32:05.678Z,1003.29
2018-10-07T02:33:05.591Z,1003.27
2018-10-07T02:34:05.525Z,1003.28
2018-10-07T02:35:05.426Z,1003.30
2018-10-07T02:36:05.351Z,1003.30
2018-10-07T02:37:05.265Z,1003.30
2018-10-07T02:38:05.187Z,1003.33
2018-10-07T02:39:05.104Z,1003.38
2018-10-07T02:40:05.025Z,1003.39
2018-10-07T02:41:04.937Z,1003.39
2018-10-07T02:42:04.862Z,1003.46
2018-10-07T02:43:04.776Z,1003.41
2018-10-07T02:44:04.703Z,1003.41
2018-10-07T02:45:04.626Z,1003.46
2018-10-07T02:46:04.538Z,1003.47
2018-10-07T02:47:04.451Z,1003.48
2018-10-07T02:48:04.376Z,1003.45
2018-10-07T02:49:04.290Z,1003.46
2018-10-07T02:50:04.219Z,1003.47
2018-10-07T02:51:04.128Z,1003.49
2018-10-07T02:52:04.040Z,1003.56
2018-10-07T02:53:03.990Z,1003.53
2018-10-07T02:54:03.889Z,1003.48
2018-10-07T02:55:03.803Z,1003.49
2018-10-07T02:56:03.727Z,1003.49
2018-10-07T02:57:03.640Z,1003.48
2018-10-07T02:58:03.553Z,1003.47
2018-10-07T02:59:03.532Z,1003.48
2018-10-07T03:00:03.391Z,1003.51
2018-10-07T03:01:03.329Z,1003.50
2018-10-07T03:02:03.228Z,1003.47
2018-10-07T03:03:03.160Z,1003.47
2018-10-07T03:04:03.079Z,1003.50
2018-10-07T03:05:02.993Z,1003.50
2018-10-07T03:06:02.903Z,1003.50
2018-10-07T03:07:02.829Z,1003.50
2018-10-07T03:08:02.741Z,1003.56
2018-10-07T03:09:02.668Z,1003.54
2018-10-07T03:10:02.580Z,1003.53
2018-10-07T03:11:02.504Z,1003.55
2018-10-07T03:12:02.430Z,1003.56
2018-10-07T03:13:02.341Z,1003.53
2018-10-07T03:14:02.255Z,1003.52
2018-10-07T03:15:02.169Z,1003.56
2018-10-07T03:16:02.092Z,1003.55
2018-10-07T03:17:02.005Z,1003.54
2018-10-07T03:18:01.932Z,1003.51
2018-10-07T03:19:01.848Z,1003.54
2018-10-07T03:20:01.769Z,1003.57
2018-10-07T03:21:01.692Z,1003.57
2018-10-07T03:22:01.608Z,1003.58
2018-10-07T03:23:01.530Z,1003.62
2018-10-07T03:24:01.445Z,1003.60
2018-10-07T03:25:01.355Z,1003.60
2018-10-07T03:26:01.281Z,1003.61
2018-10-07T03:27:01.193Z,1003.60
2018-10-07T03:28:01.131Z,1003.62
2018-10-07T03:29:01.033Z,1003.61
2018-10-07T03:30:00.945Z,1003.63
2018-10-07T03:31:00.868Z,1003.60
2018-10-07T03:32:00.798Z,1003.59
2018-10-07T03:33:00.707Z,1003.61
2018-10-07T03:34:00.619Z,1003.61
2018-10-07T03:35:00.545Z,1003.63
2018-10-07T03:36:00.461Z,1003.66
2018-10-07T03:37:00.386Z,1003.70
2018-10-07T03:38:00.294Z,1003.74
2018-10-07T03:39:00.220Z,1003.78
2018-10-07T03:40:00.133Z,1003.83
2018-10-07T03:41:00.059Z,1003.88
2018-10-07T03:41:59.984Z,1003.92
2018-10-07T03:42:59.896Z,1003.89
2018-10-07T03:43:59.813Z,1003.88
2018-10-07T03:44:59.720Z,1003.85
2018-10-07T03:45:59.895Z,1003.87
2018-10-07T03:46:59.561Z,1003.93
2018-10-07T03:47:59.484Z,1003.99
2018-10-07T03:48:59.396Z,1003.92
2018-10-07T03:49:59.321Z,1003.95
2018-10-07T03:50:59.236Z,1003.96
2018-10-07T03:51:59.159Z,1003.93
2018-10-07T03:52:59.071Z,1003.93
2018-10-07T03:53:58.996Z,1003.90
2018-10-07T03:54:58.911Z,1003.93
2018-10-07T03:55:58.823Z,1003.91
2018-10-07T03:56:58.748Z,1004.04
2018-10-07T03:57:58.671Z,1004.02
2018-10-07T03:58:58.584Z,1004.04
2018-10-07T03:59:58.510Z,1004.07
2018-10-07T04:00:58.422Z,1004.13
2018-10-07T04:01:58.335Z,1004.13
2018-10-07T04:02:58.261Z,1004.13
2018-10-07T04:03:58.173Z,1004.17
2018-10-07T04:04:58.098Z,1004.22
2018-10-07T04:05:58.261Z,1004.19
2018-10-07T04:06:57.936Z,1004.22
2018-10-07T04:07:57.861Z,1004.22
2018-10-07T04:08:57.764Z,1004.22
2018-10-07T04:09:57.691Z,1004.19
2018-10-07T04:10:57.598Z,1004.21
2018-10-07T04:11:57.524Z,1004.16
2018-10-07T04:12:57.437Z,1004.17
2018-10-07T04:13:57.361Z,1004.17
2018-10-07T04:14:57.274Z,1004.24
2018-10-07T04:15:57.199Z,1004.20
2018-10-07T04:16:57.112Z,1004.22
2018-10-07T04:17:57.038Z,1004.20
2018-10-07T04:18:56.962Z,1004.20
2018-10-07T04:19:56.863Z,1004.27
2018-10-07T04:20:57.039Z,1004.22
2018-10-07T04:21:56.700Z,1004.28
2018-10-07T04:22:56.625Z,1004.29
2018-10-07T04:23:56.538Z,1004.32
2018-10-07T04:24:56.463Z,1004.33
2018-10-07T04:25:56.374Z,1004.32
2018-10-07T04:26:56.301Z,1004.30
2018-10-07T04:27:56.215Z,1004.33
2018-10-07T04:28:56.139Z,1004.35
2018-10-07T04:29:56.064Z,1004.33
2018-10-07T04:30:55.976Z,1004.29
2018-10-07T04:31:55.890Z,1004.30
2018-10-07T04:32:55.801Z,1004.29
2018-10-07T04:33:55.728Z,1004.26
2018-10-07T04:34:55.639Z,1004.30
2018-10-07T04:35:55.865Z,1004.28
2018-10-07T04:36:55.476Z,1004.29
2018-10-07T04:37:55.401Z,1004.24
2018-10-07T04:38:55.314Z,1004.28
2018-10-07T04:39:55.343Z,1004.26
2018-10-07T04:40:55.151Z,1004.27
2018-10-07T04:41:55.076Z,1004.29
2018-10-07T04:42:54.990Z,1004.35
2018-10-07T04:43:54.902Z,1004.33
2018-10-07T04:44:54.827Z,1004.31
2018-10-07T04:45:54.740Z,1004.33
2018-10-07T04:46:54.665Z,1004.28
2018-10-07T04:47:54.577Z,1004.29
2018-10-07T04:48:54.503Z,1004.28
2018-10-07T04:49:54.417Z,1004.31
2018-10-07T04:50:54.341Z,1004.34
2018-10-07T04:51:54.253Z,1004.35
2018-10-07T04:52:54.177Z,1004.40
2018-10-07T04:53:54.095Z,1004.48
2018-10-07T04:54:54.003Z,1004.49
2018-10-07T04:55:53.928Z,1004.51
2018-10-07T04:56:53.841Z,1004.54
2018-10-07T04:57:53.765Z,1004.58
2018-10-07T04:58:53.678Z,1004.60
2018-10-07T04:59:53.604Z,1004.59
2018-10-07T05:00:53.767Z,1004.59
2018-10-07T05:01:53.442Z,1004.59
2018-10-07T05:02:53.354Z,1004.60
2018-10-07T05:03:53.279Z,1004.62
2018-10-07T05:04:53.192Z,1004.61
2018-10-07T05:05:53.117Z,1004.65
2018-10-07T05:06:53.029Z,1004.64
2018-10-07T05:07:52.943Z,1004.59
2018-10-07T05:08:52.868Z,1004.66
2018-10-07T05:09:52.780Z,1004.63
2018-10-07T05:10:52.717Z,1004.68
2018-10-07T05:11:52.667Z,1004.66
2018-10-07T05:12:52.543Z,1004.67
2018-10-07T05:13:52.454Z,1004.68
2018-10-07T05:14:52.379Z,1004.76
2018-10-07T05:15:52.294Z,1004.78
2018-10-07T05:16:52.221Z,1004.82
2018-10-07T05:17:52.130Z,1004.85
2018-10-07T05:18:52.055Z,1004.86
2018-10-07T05:19:51.970Z,1004.88
2018-10-07T05:20:51.944Z,1004.88
2018-10-07T05:21:51.818Z,1004.92
2018-10-07T05:22:51.731Z,1004.97
2018-10-07T05:23:51.643Z,1004.96
2018-10-07T05:24:51.557Z,1004.97
2018-10-07T05:25:51.481Z,1005.01
2018-10-07T05:26:51.395Z,1004.99
2018-10-07T05:27:51.321Z,1005.07
2018-10-07T05:28:51.232Z,1005.04
2018-10-07T05:29:51.157Z,1005.08
2018-10-07T05:30:51.081Z,1005.10
2018-10-07T05:31:50.995Z,1005.16
2018-10-07T05:32:50.920Z,1005.13
2018-10-07T05:33:50.832Z,1005.16
2018-10-07T05:34:50.745Z,1005.14
2018-10-07T05:35:50.671Z,1005.19
2018-10-07T05:36:50.582Z,1005.11
2018-10-07T05:37:50.507Z,1005.17
2018-10-07T05:38:50.421Z,1005.16
2018-10-07T05:39:50.335Z,1005.20
2018-10-07T05:40:50.272Z,1005.27
2018-10-07T05:41:50.185Z,1005.31
2018-10-07T05:42:50.111Z,1005.33
2018-10-07T05:43:50.009Z,1005.32
2018-10-07T05:44:49.977Z,1005.35
2018-10-07T05:45:49.847Z,1005.33
2018-10-07T05:46:49.772Z,1005.32
2018-10-07T05:47:49.683Z,1005.35
2018-10-07T05:48:49.611Z,1005.39
2018-10-07T05:49:49.523Z,1005.45
2018-10-07T05:50:49.447Z,1005.51
2018-10-07T05:51:49.361Z,1005.54
2018-10-07T05:52:49.284Z,1005.54
2018-10-07T05:53:49.200Z,1005.55
2018-10-07T05:54:49.124Z,1005.60
2018-10-07T05:55:49.140Z,1005.65
2018-10-07T05:56:48.960Z,1005.71
2018-10-07T05:57:48.878Z,1005.68
2018-10-07T05:58:48.801Z,1005.73
2018-10-07T05:59:48.710Z,1005.76
2018-10-07T06:00:48.635Z,1005.73
2018-10-07T06:01:48.644Z,1005.77
2018-10-07T06:02:48.473Z,1005.77
2018-10-07T06:03:48.387Z,1005.88
2018-10-07T06:04:48.301Z,1005.86
2018-10-07T06:05:48.224Z,1005.80
2018-10-07T06:06:48.137Z,1005.76
2018-10-07T06:07:48.061Z,1005.84
2018-10-07T06:08:47.974Z,1005.81
2018-10-07T06:09:47.899Z,1005.81
2018-10-07T06:10:47.813Z,1005.89
2018-10-07T06:11:47.751Z,1005.93
2018-10-07T06:12:47.651Z,1006.01
2018-10-07T06:13:47.578Z,1005.92
2018-10-07T06:14:47.501Z,1006.00
2018-10-07T06:15:47.412Z,1005.94
2018-10-07T06:16:47.327Z,1005.96
2018-10-07T06:17:47.250Z,1006.00
2018-10-07T06:18:47.164Z,1006.03
2018-10-07T06:19:47.087Z,1006.06
2018-10-07T06:20:47.001Z,1006.09
2018-10-07T06:21:46.926Z,1006.20
2018-10-07T06:22:46.851Z,1006.24
2018-10-07T06:23:46.786Z,1006.25
2018-10-07T06:24:46.680Z,1006.34
2018-10-07T06:25:46.605Z,1006.33
2018-10-07T06:26:46.513Z,1006.37
2018-10-07T06:27:46.452Z,1006.48
2018-10-07T06:28:46.351Z,1006.47
2018-10-07T06:29:46.349Z,1006.61
2018-10-07T06:30:46.201Z,1006.63
2018-10-07T06:31:46.113Z,1006.59
2018-10-07T06:32:46.027Z,1006.62
2018-10-07T06:33:45.952Z,1006.60
2018-10-07T06:34:45.863Z,1006.65
2018-10-07T06:35:45.789Z,1006.67
2018-10-07T06:36:45.702Z,1006.70
2018-10-07T06:37:45.627Z,1006.78
2018-10-07T06:38:45.594Z,1006.77
2018-10-07T06:39:45.524Z,1006.82
2018-10-07T06:40:45.377Z,1006.87
2018-10-07T06:41:45.303Z,1006.84
2018-10-07T06:42:45.214Z,1006.93
2018-10-07T06:43:45.146Z,1006.86
2018-10-07T06:44:45.053Z,1006.93
2018-10-07T06:45:44.993Z,1006.97
2018-10-07T06:46:44.892Z,1006.93
2018-10-07T06:47:44.816Z,1006.97
2018-10-07T06:48:44.729Z,1006.98
2018-10-07T06:49:44.659Z,1007.06
2018-10-07T06:50:44.572Z,1007.05
2018-10-07T06:51:44.490Z,1007.05
2018-10-07T06:52:44.403Z,1007.09
2018-10-07T06:53:44.328Z,1007.10
2018-10-07T06:54:44.240Z,1007.09
2018-10-07T06:55:44.166Z,1007.17
2018-10-07T06:56:44.079Z,1007.15
2018-10-07T06:57:44.006Z,1007.16
2018-10-07T06:58:43.929Z,1007.14
2018-10-07T06:59:43.893Z,1007.27
2018-10-07T07:00:43.758Z,1007.26
2018-10-07T07:01:43.680Z,1007.30
2018-10-07T07:02:43.593Z,1007.26
2018-10-07T07:03:43.530Z,1007.30
2018-10-07T07:04:43.430Z,1007.35
2018-10-07T07:05:43.357Z,1007.37
2018-10-07T07:06:43.268Z,1007.34
2018-10-07T07:07:43.192Z,1007.32
2018-10-07T07:08:43.106Z,1007.35
2018-10-07T07:09:43.031Z,1007.43
2018-10-07T07:10:42.956Z,1007.48
2018-10-07T07:11:42.867Z,1007.54
2018-10-07T07:12:42.781Z,1007.49
2018-10-07T07:13:42.707Z,1007.58
2018-10-07T07:14:42.618Z,1007.64
2018-10-07T07:15:42.557Z,1007.65
2018-10-07T07:16:42.457Z,1007.71
2018-10-07T07:17:42.381Z,1007.69
2018-10-07T07:18:42.295Z,1007.75
2018-10-07T07:19:42.272Z,1007.78
2018-10-07T07:20:42.131Z,1007.87
2018-10-07T07:21:42.058Z,1007.85
2018-10-07T07:22:41.970Z,1007.93
2018-10-07T07:23:41.894Z,1007.93
2018-10-07T07:24:41.819Z,1007.95
2018-10-07T07:25:41.734Z,1008.01
2018-10-07T07:26:41.657Z,1008.03
2018-10-07T07:27:41.573Z,1008.02
2018-10-07T07:28:41.483Z,1008.01
2018-10-07T07:29:41.408Z,1008.05
2018-10-07T07:30:41.334Z,1008.05
2018-10-07T07:31:41.258Z,1008.08
2018-10-07T07:32:41.170Z,1008.10
2018-10-07T07:33:41.083Z,1008.16
2018-10-07T07:34:41.009Z,1008.22
2018-10-07T07:35:40.920Z,1008.24
2018-10-07T07:36:40.864Z,1008.32
2018-10-07T07:37:40.764Z,1008.28
2018-10-07T07:38:40.684Z,1008.37
2018-10-07T07:39:40.597Z,1008.39
2018-10-07T07:40:40.521Z,1008.40
2018-10-07T07:41:40.437Z,1008.46
2018-10-07T07:42:40.359Z,1008.50
2018-10-07T07:43:40.271Z,1008.54
2018-10-07T07:44:40.197Z,1008.56
2018-10-07T07:45:40.121Z,1008.65
2018-10-07T07:46:40.040Z,1008.69
2018-10-07T07:47:39.960Z,1008.65
2018-10-07T07:48:39.872Z,1008.71
2018-10-07T07:49:39.786Z,1008.73
2018-10-07T07:50:39.711Z,1008.76
2018-10-07T07:51:39.624Z,1008.78
2018-10-07T07:52:39.547Z,1008.85
2018-10-07T07:53:39.464Z,1008.84
2018-10-07T07:54:39.386Z,1008.87
2018-10-07T07:55:39.297Z,1008.93
2018-10-07T07:56:39.222Z,1008.95
2018-10-07T07:57:39.138Z,1008.99
2018-10-07T07:58:39.062Z,1008.94
2018-10-07T07:59:38.974Z,1009.02
2018-10-07T08:00:38.897Z,1009.05
2018-10-07T08:01:38.812Z,1009.02
2018-10-07T08:02:38.737Z,1009.00
2018-10-07T08:03:38.648Z,1009.03
2018-10-07T08:04:38.574Z,1008.99
2018-10-07T08:05:38.486Z,1009.09
2018-10-07T08:06:38.413Z,1009.13
2018-10-07T08:07:38.324Z,1009.15
2018-10-07T08:08:38.307Z,1009.17
2018-10-07T08:09:38.163Z,1009.15
2018-10-07T08:10:38.088Z,1009.18
2018-10-07T08:11:38.002Z,1009.20
2018-10-07T08:12:37.914Z,1009.21
2018-10-07T08:13:37.838Z,1009.24
2018-10-07T08:14:37.751Z,1009.26
2018-10-07T08:15:37.676Z,1009.31
2018-10-07T08:16:37.593Z,1009.32
2018-10-07T08:17:37.558Z,1009.35
2018-10-07T08:18:37.426Z,1009.31
2018-10-07T08:19:37.350Z,1009.41
2018-10-07T08:20:37.264Z,1009.44
2018-10-07T08:21:37.190Z,1009.40
2018-10-07T08:22:37.100Z,1009.38
2018-10-07T08:23:37.063Z,1009.40
2018-10-07T08:24:36.938Z,1009.47
2018-10-07T08:25:36.865Z,1009.52
2018-10-07T08:26:36.776Z,1009.48
2018-10-07T08:27:36.690Z,1009.53
2018-10-07T08:28:36.615Z,1009.56
2018-10-07T08:29:36.601Z,1009.57
2018-10-07T08:30:36.452Z,1009.59
2018-10-07T08:31:36.367Z,1009.62
2018-10-07T08:32:36.290Z,1009.61
2018-10-07T08:33:36.202Z,1009.71
2018-10-07T08:34:36.129Z,1009.70
2018-10-07T08:35:36.040Z,1009.69
2018-10-07T08:36:35.967Z,1009.74
2018-10-07T08:37:35.878Z,1009.70
2018-10-07T08:38:35.803Z,1009.75
2018-10-07T08:39:35.717Z,1009.76
2018-10-07T08:40:35.640Z,1009.75
2018-10-07T08:41:35.553Z,1009.83
2018-10-07T08:42:35.478Z,1009.88
2018-10-07T08:43:35.394Z,1009.84
2018-10-07T08:44:35.317Z,1009.88
2018-10-07T08:45:35.229Z,1009.90
2018-10-07T08:46:35.154Z,1009.97
2018-10-07T08:47:35.067Z,1010.01
2018-10-07T08:48:34.980Z,1010.01
2018-10-07T08:49:34.906Z,1010.05
2018-10-07T08:50:34.829Z,1010.08
2018-10-07T08:51:34.745Z,1010.16
2018-10-07T08:52:34.667Z,1010.13
2018-10-07T08:53:34.582Z,1010.15
2018-10-07T08:54:34.494Z,1010.23
2018-10-07T08:55:34.418Z,1010.25
2018-10-07T08:56:34.362Z,1010.28
2018-10-07T08:57:34.255Z,1010.28
2018-10-07T08:58:34.167Z,1010.30
2018-10-07T08:59:34.092Z,1010.32
2018-10-07T09:00:34.005Z,1010.32
2018-10-07T09:01:33.930Z,1010.39
2018-10-07T09:02:33.854Z,1010.43
2018-10-07T09:03:33.769Z,1010.42
2018-10-07T09:04:33.694Z,1010.43
2018-10-07T09:05:33.605Z,1010.42
2018-10-07T09:06:33.530Z,1010.51
2018-10-07T09:07:33.449Z,1010.46
2018-10-07T09:08:33.368Z,1010.52
2018-10-07T09:09:33.280Z,1010.52
2018-10-07T09:10:33.206Z,1010.51
2018-10-07T09:11:33.121Z,1010.54
2018-10-07T09:12:33.044Z,1010.51
2018-10-07T09:13:32.956Z,1010.56
2018-10-07T09:14:32.885Z,1010.52
2018-10-07T09:15:32.795Z,1010.63
2018-10-07T09:16:32.719Z,1010.61
2018-10-07T09:17:32.645Z,1010.58
2018-10-07T09:18:32.557Z,1010.62
2018-10-07T09:19:32.481Z,1010.71
2018-10-07T09:20:32.396Z,1010.70
2018-10-07T09:21:32.321Z,1010.72
2018-10-07T09:22:32.232Z,1010.77
2018-10-07T09:23:32.157Z,1010.81
2018-10-07T09:24:32.072Z,1010.87
2018-10-07T09:25:31.996Z,1010.91
2018-10-07T09:26:31.921Z,1010.93
2018-10-07T09:27:31.881Z,1010.96
2018-10-07T09:28:31.757Z,1011.01
2018-10-07T09:29:31.672Z,1011.00
2018-10-07T09:30:31.597Z,1011.04
2018-10-07T09:31:31.509Z,1011.03
2018-10-07T09:32:31.522Z,1011.03
2018-10-07T09:33:31.358Z,1011.07
2018-10-07T09:34:31.272Z,1011.06
2018-10-07T09:35:31.204Z,1011.10
2018-10-07T09:36:31.109Z,1011.10
2018-10-07T09:37:31.033Z,1011.17
2018-10-07T09:38:30.958Z,1011.19
2018-10-07T09:39:30.930Z,1011.23
2018-10-07T09:40:30.798Z,1011.21
2018-10-07T09:41:30.713Z,1011.27
2018-10-07T09:42:30.636Z,1011.24
2018-10-07T09:43:30.547Z,1011.28
2018-10-07T09:44:30.472Z,1011.26
2018-10-07T09:45:30.399Z,1011.24
2018-10-07T09:46:30.309Z,1011.27
2018-10-07T09:47:30.235Z,1011.28
2018-10-07T09:48:30.148Z,1011.27
2018-10-07T09:49:30.078Z,1011.33
2018-10-07T09:50:29.985Z,1011.37
2018-10-07T09:51:29.912Z,1011.42
2018-10-07T09:52:29.824Z,1011.42
2018-10-07T09:53:29.749Z,1011.43
2018-10-07T09:54:29.663Z,1011.41
2018-10-07T09:55:29.585Z,1011.46
2018-10-07T09:56:29.525Z,1011.48
2018-10-07T09:57:29.425Z,1011.52
2018-10-07T09:58:29.356Z,1011.47
2018-10-07T09:59:29.262Z,1011.46
2018-10-07T10:00:29.186Z,1011.57
2018-10-07T10:01:29.100Z,1011.58
2018-10-07T10:02:29.025Z,1011.57
2018-10-07T10:03:28.937Z,1011.63
2018-10-07T10:04:28.870Z,1011.63
2018-10-07T10:05:28.775Z,1011.61
2018-10-07T10:06:28.700Z,1011.67
2018-10-07T10:07:28.612Z,1011.72
2018-10-07T10:08:28.550Z,1011.74
2018-10-07T10:09:28.450Z,1011.83
2018-10-07T10:10:28.376Z,1011.82
2018-10-07T10:11:28.291Z,1011.84
2018-10-07T10:12:28.213Z,1011.87
2018-10-07T10:13:28.127Z,1011.87
2018-10-07T10:14:28.051Z,1011.88
2018-10-07T10:15:27.963Z,1011.91
2018-10-07T10:16:27.888Z,1011.87
2018-10-07T10:17:27.803Z,1011.92
2018-10-07T10:18:27.727Z,1011.93
2018-10-07T10:19:27.656Z,1011.95
2018-10-07T10:20:27.563Z,1011.97
2018-10-07T10:21:27.477Z,1011.99
2018-10-07T10:22:27.402Z,1011.96
2018-10-07T10:23:27.315Z,1011.92
2018-10-07T10:24:27.239Z,1011.94
2018-10-07T10:25:27.152Z,1011.93
2018-10-07T10:26:27.078Z,1011.97
2018-10-07T10:27:27.002Z,1011.99
2018-10-07T10:28:26.913Z,1012.02
2018-10-07T10:29:26.827Z,1012.00
2018-10-07T10:30:26.752Z,1012.03
2018-10-07T10:31:26.668Z,1012.06
2018-10-07T10:32:26.589Z,1012.07
2018-10-07T10:33:26.503Z,1012.14
2018-10-07T10:34:26.428Z,1012.20
2018-10-07T10:35:26.341Z,1012.28
2018-10-07T10:36:26.265Z,1012.25
2018-10-07T10:37:26.182Z,1012.40
2018-10-07T10:38:26.103Z,1012.39
2018-10-07T10:39:26.089Z,1012.42
2018-10-07T10:40:25.942Z,1012.45
2018-10-07T10:41:25.853Z,1012.41
2018-10-07T10:42:25.779Z,1012.51
2018-10-07T10:43:25.691Z,1012.54
2018-10-07T10:44:25.631Z,1012.52
2018-10-07T10:45:25.530Z,1012.56
2018-10-07T10:46:25.454Z,1012.55
2018-10-07T10:47:25.366Z,1012.58
2018-10-07T10:48:25.279Z,1012.52
2018-10-07T10:49:25.204Z,1012.54
2018-10-07T10:50:25.117Z,1012.54
2018-10-07T10:51:25.043Z,1012.53
2018-10-07T10:52:24.954Z,1012.51
2018-10-07T10:53:24.880Z,1012.58
2018-10-07T10:54:24.805Z,1012.60
2018-10-07T10:55:24.718Z,1012.62
2018-10-07T10:56:24.630Z,1012.55
2018-10-07T10:57:24.557Z,1012.59
2018-10-07T10:58:24.467Z,1012.56
2018-10-07T10:59:24.395Z,1012.55
2018-10-07T11:00:24.306Z,1012.60
2018-10-07T11:01:24.232Z,1012.55
2018-10-07T11:02:24.143Z,1012.55
2018-10-07T11:03:24.057Z,1012.55
2018-10-07T11:04:23.999Z,1012.54
2018-10-07T11:05:23.894Z,1012.58
2018-10-07T11:06:23.832Z,1012.57
2018-10-07T11:07:23.735Z,1012.60
2018-10-07T11:08:23.657Z,1012.56
2018-10-07T11:09:23.570Z,1012.60
2018-10-07T11:10:23.494Z,1012.63
2018-10-07T11:11:23.408Z,1012.62
2018-10-07T11:12:23.334Z,1012.63
2018-10-07T11:13:23.244Z,1012.63
2018-10-07T11:14:23.171Z,1012.65
2018-10-07T11:15:23.129Z,1012.68
2018-10-07T11:16:23.008Z,1012.68
2018-10-07T11:17:22.921Z,1012.72
2018-10-07T11:18:22.848Z,1012.69
2018-10-07T11:19:22.786Z,1012.66
2018-10-07T11:20:22.675Z,1012.63
2018-10-07T11:21:22.595Z,1012.70
2018-10-07T11:22:22.509Z,1012.73
2018-10-07T11:23:22.434Z,1012.74
2018-10-07T11:24:22.347Z,1012.75
2018-10-07T11:25:22.271Z,1012.72
2018-10-07T11:26:22.185Z,1012.74
2018-10-07T11:27:22.112Z,1012.74
2018-10-07T11:28:22.021Z,1012.71
2018-10-07T11:29:21.951Z,1012.72
2018-10-07T11:30:21.859Z,1012.75
2018-10-07T11:31:21.785Z,1012.77
2018-10-07T11:32:21.698Z,1012.83
2018-10-07T11:33:21.639Z,1012.79
2018-10-07T11:34:21.546Z,1012.79
2018-10-07T11:35:21.464Z,1012.81
2018-10-07T11:36:21.375Z,1012.82
2018-10-07T11:37:21.297Z,1012.88
2018-10-07T11:38:21.223Z,1012.86
2018-10-07T11:39:21.135Z,1012.90
2018-10-07T11:40:21.061Z,1012.93
2018-10-07T11:41:20.972Z,1012.93
2018-10-07T11:42:20.897Z,1012.93
2018-10-07T11:43:20.811Z,1012.93
2018-10-07T11:44:20.739Z,1012.95
2018-10-07T11:45:20.650Z,1012.93
2018-10-07T11:46:20.574Z,1012.90
2018-10-07T11:47:20.493Z,1012.92
2018-10-07T11:48:20.412Z,1012.90
2018-10-07T11:49:20.323Z,1012.94
2018-10-07T11:50:20.249Z,1012.93
2018-10-07T11:51:20.161Z,1012.92
2018-10-07T11:52:20.087Z,1012.93
2018-10-07T11:53:19.999Z,1012.91
2018-10-07T11:54:19.924Z,1012.97
2018-10-07T11:55:19.838Z,1013.01
2018-10-07T11:56:19.762Z,1013.07
2018-10-07T11:57:19.687Z,1013.05
2018-10-07T11:58:19.603Z,1013.04
2018-10-07T11:59:19.524Z,1013.03
2018-10-07T12:00:19.438Z,1013.02
2018-10-07T12:01:19.362Z,1013.05
2018-10-07T12:02:19.306Z,1013.05
2018-10-07T12:03:19.200Z,1013.10
2018-10-07T12:04:19.117Z,1013.11
2018-10-07T12:05:19.038Z,1013.18
2018-10-07T12:06:18.951Z,1013.16
2018-10-07T12:07:18.889Z,1013.19
2018-10-07T12:08:18.788Z,1013.22
2018-10-07T12:09:18.717Z,1013.19
2018-10-07T12:10:18.722Z,1013.23
2018-10-07T12:11:18.551Z,1013.29
2018-10-07T12:12:18.489Z,1013.28
2018-10-07T12:13:18.401Z,1013.33
2018-10-07T12:14:18.321Z,1013.34
2018-10-07T12:15:18.227Z,1013.30
2018-10-07T12:16:18.153Z,1013.34
2018-10-07T12:17:18.065Z,1013.30
2018-10-07T12:18:17.989Z,1013.34
2018-10-07T12:19:17.901Z,1013.33